createdAt,value
2018-02-15T00:05:56.929Z,99667.90
2018-02-15T00:12:01.558Z,99663.13
2018-02-15T00:18:06.066Z,99646.02
2018-02-15T00:24:10.782Z,99641.82
2018-02-15T00:30:15.308Z,99631.91
2018-02-15T00:36:19.842Z,99628.24
2018-02-15T00:42:25.126Z,99632.84
2018-02-15T00:48:30.578Z,99637.42
2018-02-15T00:54:35.202Z,99629.24
2018-02-15T01:00:39.759Z,99627.31
2018-02-15T01:06:44.258Z,99628.86
2018-02-15T01:12:48.842Z,99622.47
2018-02-15T01:18:53.889Z,99618.23
2018-02-15T01:24:58.706Z,99601.78
2018-02-15T01:31:03.196Z,99602.97
2018-02-15T01:37:07.700Z,99590.23
2018-02-15T01:43:12.948Z,99576.20
2018-02-15T01:49:17.588Z,99580.02
2018-02-15T01:55:22.807Z,99576.39
2018-02-15T02:01:27.608Z,99570.68
2018-02-15T02:07:32.150Z,99565.80
2018-02-15T02:13:36.949Z,99569.06
2018-02-15T02:19:41.565Z,99556.26
2018-02-15T02:25:47.559Z,99554.17
2018-02-15T02:31:53.541Z,99548.08
2018-02-15T02:37:58.875Z,99539.38
2018-02-15T02:44:03.419Z,99529.23
2018-02-15T02:50:08.129Z,99526.34
2018-02-15T02:56:12.623Z,99506.37
2018-02-15T03:02:17.143Z,99497.05
2018-02-15T03:08:22.228Z,99492.61
2018-02-15T03:14:27.729Z,99499.79
2018-02-15T03:20:32.319Z,99492.00
2018-02-15T03:26:36.923Z,99484.31
2018-02-15T03:32:41.532Z,99493.74
2018-02-15T03:38:46.100Z,99472.63
2018-02-15T03:44:51.150Z,99476.80
2018-02-15T03:50:55.738Z,99478.19
2018-02-15T03:57:00.217Z,99462.52
2018-02-15T04:03:04.768Z,99457.14
2018-02-15T04:09:09.317Z,99435.23
2018-02-15T04:15:13.973Z,99433.27
2018-02-15T04:21:18.435Z,99426.78
2018-02-15T04:27:23.067Z,99438.25
2018-02-15T04:33:27.910Z,99436.42
2018-02-15T04:39:32.443Z,99445.56
2018-02-15T04:45:37.708Z,99449.91
2018-02-15T04:51:42.254Z,99446.23
2018-02-15T04:57:47.595Z,99450.39
2018-02-15T05:03:52.975Z,99449.11
2018-02-15T05:09:58.234Z,99442.90
2018-02-15T05:16:02.756Z,99434.30
2018-02-15T05:22:07.266Z,99423.77
2018-02-15T05:28:11.790Z,99415.13
2018-02-15T05:34:16.338Z,99403.64
2018-02-15T05:40:21.496Z,99409.16
2018-02-15T05:46:25.991Z,99403.44
2018-02-15T05:52:30.515Z,99388.08
2018-02-15T05:58:35.127Z,99379.56
2018-02-15T06:04:41.141Z,99382.50
2018-02-15T06:10:45.613Z,99378.50
2018-02-15T06:16:50.331Z,99357.77
2018-02-15T06:22:55.044Z,99354.30
2018-02-15T06:28:59.603Z,99346.65
2018-02-15T06:35:04.121Z,99350.45
2018-02-15T06:41:08.670Z,99345.33
2018-02-15T06:47:13.385Z,99339.16
2018-02-15T06:53:17.987Z,99337.50
2018-02-15T06:59:22.837Z,99347.57
2018-02-15T07:05:27.383Z,99344.41
2018-02-15T07:11:32.000Z,99352.69
2018-02-15T07:17:36.497Z,99359.94
2018-02-15T07:23:40.994Z,99353.60
2018-02-15T07:29:46.415Z,99357.66
2018-02-15T07:35:51.152Z,99329.45
2018-02-15T07:41:56.536Z,99316.78
2018-02-15T07:48:01.843Z,99309.28
2018-02-15T07:54:06.346Z,99288.66
2018-02-15T08:00:10.916Z,99285.61
2018-02-15T08:06:15.712Z,99284.70
2018-02-15T08:12:21.012Z,99292.84
2018-02-15T08:18:26.272Z,99293.03
2018-02-15T08:24:30.731Z,99296.31
2018-02-15T08:30:35.270Z,99301.30
2018-02-15T08:36:40.584Z,99323.23
2018-02-15T08:42:45.977Z,99315.11
2018-02-15T08:48:51.436Z,99314.03
2018-02-15T08:54:56.815Z,99320.08
2018-02-15T09:01:01.641Z,99328.77
2018-02-15T09:07:06.230Z,99339.26
2018-02-15T09:13:11.505Z,99337.51
2018-02-15T09:19:15.979Z,99326.67
2018-02-15T09:25:21.661Z,99325.61
2018-02-15T09:31:26.476Z,99331.63
2018-02-15T09:37:31.767Z,99353.26
2018-02-15T09:43:37.958Z,99328.78
2018-02-15T09:49:42.483Z,99310.06
2018-02-15T09:55:47.781Z,99309.15
2018-02-15T10:01:52.522Z,99300.90
2018-02-15T10:07:57.168Z,99304.63
2018-02-15T10:14:01.692Z,99312.56
2018-02-15T10:20:06.166Z,99293.17
2018-02-15T10:26:10.845Z,99280.44
2018-02-15T10:32:15.427Z,99276.48
2018-02-15T10:38:20.713Z,99269.39
2018-02-15T10:44:25.220Z,99264.31
2018-02-15T10:50:29.713Z,99246.80
2018-02-15T10:56:35.014Z,99225.58
2018-02-15T11:02:39.574Z,99213.83
2018-02-15T11:08:44.236Z,99210.53
2018-02-15T11:14:48.746Z,99198.29
2018-02-15T11:20:53.930Z,99186.41
2018-02-15T11:26:59.169Z,99178.67
2018-02-15T11:33:03.651Z,99166.75
2018-02-15T11:39:08.344Z,99174.86
2018-02-15T11:45:12.982Z,99173.92
2018-02-15T11:51:18.223Z,99185.69
2018-02-15T11:57:22.822Z,99189.46
2018-02-15T12:03:28.686Z,99195.73
2018-02-15T12:09:33.091Z,99194.55
2018-02-15T12:15:37.594Z,99186.36
2018-02-15T12:21:42.210Z,99185.05
2018-02-15T12:27:46.693Z,99189.06
2018-02-15T12:33:51.240Z,99200.19
2018-02-15T12:39:55.738Z,99194.84
2018-02-15T12:46:00.314Z,99183.14
2018-02-15T12:52:04.837Z,99196.78
2018-02-15T12:58:10.250Z,99215.32
2018-02-15T13:04:14.993Z,99215.99
2018-02-15T13:10:19.747Z,99204.64
2018-02-15T13:16:42.106Z,99217.28
2018-02-15T13:22:49.511Z,99200.00
2018-02-15T13:28:54.206Z,99185.41
2018-02-15T13:34:58.974Z,99191.86
2018-02-15T13:41:03.648Z,99177.94
2018-02-15T13:47:08.135Z,99175.53
2018-02-15T13:53:13.440Z,99170.92
2018-02-15T13:59:17.937Z,99189.58
2018-02-15T14:05:22.534Z,99207.03
2018-02-15T14:11:27.349Z,99217.11
2018-02-15T14:17:32.603Z,99190.16
2018-02-15T14:23:37.134Z,99186.99
2018-02-15T14:29:42.229Z,99186.00
2018-02-15T14:35:46.786Z,99205.27
2018-02-15T14:41:52.135Z,99193.13
2018-02-15T14:47:56.856Z,99201.70
2018-02-15T14:54:01.403Z,99203.89
2018-02-15T15:00:06.131Z,99209.05
2018-02-15T15:06:10.646Z,99204.53
2018-02-15T15:12:15.206Z,99202.46
2018-02-15T15:18:20.060Z,99195.70
2018-02-15T15:24:24.744Z,99196.05
2018-02-15T15:30:30.085Z,99200.00
2018-02-15T15:36:34.761Z,99209.88
2018-02-15T15:42:39.273Z,99222.50
2018-02-15T15:48:44.762Z,99214.48
2018-02-15T15:54:49.497Z,99217.84
2018-02-15T16:00:54.271Z,99229.67
2018-02-15T16:06:59.035Z,99227.06
2018-02-15T16:13:03.670Z,99229.47
2018-02-15T16:19:08.267Z,99239.74
2018-02-15T16:25:12.910Z,99260.70
2018-02-15T16:31:17.872Z,99246.72
2018-02-15T16:37:22.558Z,99245.60
2018-02-15T16:43:27.195Z,99263.18
2018-02-15T16:49:31.708Z,99267.07
2018-02-15T16:55:36.428Z,99263.23
2018-02-15T17:01:41.699Z,99268.60
2018-02-15T17:07:46.352Z,99282.39
2018-02-15T17:13:51.917Z,99289.14
2018-02-15T17:19:56.457Z,99300.34
2018-02-15T17:26:00.927Z,99302.19
2018-02-15T17:32:05.473Z,99303.63
2018-02-15T17:38:10.900Z,99306.48
2018-02-15T17:44:15.454Z,99316.32
2018-02-15T17:50:20.106Z,99319.41
2018-02-15T17:56:24.996Z,99326.72
2018-02-15T18:02:29.479Z,99329.16
2018-02-15T18:08:34.012Z,99325.55
2018-02-15T18:14:38.611Z,99342.41
2018-02-15T18:20:43.888Z,99344.09
2018-02-15T18:26:48.595Z,99338.84
2018-02-15T18:32:53.151Z,99346.72
2018-02-15T18:38:57.763Z,99354.36
2018-02-15T18:45:03.169Z,99351.70
2018-02-15T18:51:07.687Z,99347.43
2018-02-15T18:57:12.184Z,99357.23
2018-02-15T19:03:16.915Z,99371.45
2018-02-15T19:09:21.920Z,99370.45
2018-02-15T19:15:26.628Z,99362.72
2018-02-15T19:21:31.898Z,99361.78
2018-02-15T19:27:36.416Z,99356.98
2018-02-15T19:33:41.810Z,99366.80
2018-02-15T19:39:46.443Z,99378.14
2018-02-15T19:45:51.679Z,99378.55
2018-02-15T19:51:56.373Z,99378.11
2018-02-15T19:58:00.828Z,99382.84
2018-02-15T20:04:05.316Z,99385.18
2018-02-15T20:10:10.593Z,99399.11
2018-02-15T20:16:15.083Z,99405.49
2018-02-15T20:22:19.961Z,99404.16
2018-02-15T20:28:27.474Z,99418.66
2018-02-15T20:34:32.869Z,99412.67
2018-02-15T20:40:37.457Z,99406.65
2018-02-15T20:46:41.924Z,99421.76
2018-02-15T20:52:51.972Z,99425.70
2018-02-15T20:58:56.518Z,99437.97
2018-02-15T21:05:01.001Z,99433.97
2018-02-15T21:11:05.496Z,99457.08
2018-02-15T21:17:10.255Z,99462.81
2018-02-15T21:23:14.887Z,99473.30
2018-02-15T21:29:19.791Z,99481.13
2018-02-15T21:35:24.313Z,99475.50
2018-02-15T21:41:28.738Z,99475.19
2018-02-15T21:47:34.035Z,99471.33
2018-02-15T21:53:38.578Z,99464.05
2018-02-15T21:59:43.080Z,99482.74
2018-02-15T22:05:47.745Z,99495.35
2018-02-15T22:11:52.509Z,99506.49
2018-02-15T22:17:57.066Z,99502.67
2018-02-15T22:24:01.819Z,99519.49
2018-02-15T22:30:06.374Z,99522.33
2018-02-15T22:36:10.880Z,99527.27
2018-02-15T22:42:15.628Z,99525.28
2018-02-15T22:48:21.644Z,99540.58
2018-02-15T22:54:26.487Z,99551.61
2018-02-15T23:00:31.798Z,99544.65
2018-02-15T23:06:36.269Z,99542.63
2018-02-15T23:12:40.752Z,99557.47
2018-02-15T23:18:45.243Z,99575.03
2018-02-15T23:24:50.213Z,99578.16
2018-02-15T23:30:55.144Z,99584.16
2018-02-15T23:37:00.808Z,99587.56
2018-02-15T23:43:05.371Z,99599.44
2018-02-15T23:49:10.689Z,99606.58
2018-02-15T23:55:15.610Z,99609.34
